Time;durP1;ratioP1;P1;durP2;ratioP2;P2;SDS_P1;SDS_P2;PMS_P1;PMS_P2;Temp;Humidity;BMP_temperature;BMP_pressure;BME280_temperature;BME280_humidity;BME280_pressure;Samples;Min_cycle;Max_cycle;Signal;HPM_P1;HPM_P2
2022/06/29 00:00:13;;;;;;;6.32;4.00;;;17.40;99.90;;;;;;5074163;28;20605;-49
2022/06/29 00:02:39;;;;;;;5.40;3.58;;;17.40;99.90;;;;;;5073968;28;20040;-51
2022/06/29 00:05:06;;;;;;;6.10;3.22;;;17.40;99.90;;;;;;5074065;28;20044;-48
2022/06/29 00:07:32;;;;;;;7.78;3.67;;;17.40;99.90;;;;;;5074121;28;20531;-51
2022/06/29 00:09:58;;;;;;;7.20;4.03;;;17.40;99.90;;;;;;5073762;28;20048;-48
2022/06/29 00:12:24;;;;;;;9.77;3.95;;;17.40;99.90;;;;;;5073857;28;20438;-48
2022/06/29 00:14:50;;;;;;;7.82;3.83;;;17.30;99.90;;;;;;5073685;28;20068;-46
2022/06/29 00:17:16;;;;;;;7.65;4.18;;;17.40;99.90;;;;;;5073591;28;20036;-48
2022/06/29 00:19:41;;;;;;;5.10;4.03;;;17.30;99.90;;;;;;5072542;28;20123;-46
2022/06/29 00:22:08;;;;;;;7.03;3.70;;;17.20;99.90;;;;;;5073504;28;20036;-49
2022/06/29 00:24:34;;;;;;;8.50;4.00;;;17.20;99.90;;;;;;5073392;28;20517;-49
2022/06/29 00:27:01;;;;;;;6.55;4.85;;;17.20;99.90;;;;;;5073596;28;20048;-50
2022/06/29 00:29:27;;;;;;;9.50;4.68;;;17.20;99.90;;;;;;5072049;28;20553;-51
2022/06/29 00:31:53;;;;;;;5.47;4.32;;;17.10;99.90;;;;;;5073072;28;20541;-47
2022/06/29 00:34:19;;;;;;;4.30;3.90;;;17.10;99.90;;;;;;5073040;28;20044;-47
2022/06/29 00:36:44;;;;;;;12.73;3.92;;;17.10;99.90;;;;;;5073240;28;20040;-48
2022/06/29 00:39:10;;;;;;;11.35;3.95;;;17.10;99.90;;;;;;5073285;28;20045;-47
2022/06/29 00:41:41;;;;;;;8.60;3.55;;;17.10;99.90;;;;;;5073324;28;20044;-46
2022/06/29 00:44:10;;;;;;;4.28;3.53;;;17.10;99.90;;;;;;5073093;28;20123;-47
2022/06/29 00:46:40;;;;;;;;;;;17.10;99.90;;;;;;5073501;28;20375;-46
2022/06/29 00:49:05;;;;;;;7.10;3.70;;;17.00;99.90;;;;;;5072792;28;19920;-48
2022/06/29 00:51:34;;;;;;;8.38;4.10;;;17.00;99.90;;;;;;5073197;28;20035;-48
2022/06/29 00:54:02;;;;;;;6.80;3.83;;;17.00;99.90;;;;;;5073153;28;20037;-49
2022/06/29 00:56:28;;;;;;;4.33;3.80;;;16.90;99.90;;;;;;5071552;28;20402;-51
2022/06/29 00:58:57;;;;;;;6.72;3.95;;;16.90;99.90;;;;;;5071368;28;20076;-50
2022/06/29 01:01:25;;;;;;;6.65;4.43;;;16.90;99.90;;;;;;5072382;28;20490;-51
2022/06/29 01:03:50;;;;;;;8.02;4.22;;;16.90;99.90;;;;;;5072812;28;20037;-49
2022/06/29 01:06:16;;;;;;;6.72;4.72;;;16.90;99.90;;;;;;5072761;28;20041;-49
2022/06/29 01:08:42;;;;;;;5.55;4.30;;;16.80;99.90;;;;;;5072421;28;20435;-51
2022/06/29 01:11:07;;;;;;;6.65;4.15;;;16.90;99.90;;;;;;5072501;28;20036;-50
2022/06/29 01:13:33;;;;;;;5.50;4.10;;;16.80;99.90;;;;;;5072444;28;20076;-48
2022/06/29 01:15:59;;;;;;;4.28;3.75;;;16.80;99.90;;;;;;5072305;28;20123;-50
2022/06/29 01:18:24;;;;;;;4.65;3.53;;;16.80;99.90;;;;;;5072525;28;20138;-50
2022/06/29 01:20:50;;;;;;;5.18;3.65;;;16.80;99.90;;;;;;5072506;28;20044;-51
2022/06/29 01:23:16;;;;;;;6.80;4.05;;;16.80;99.90;;;;;;5072588;28;20040;-51
2022/06/29 01:25:41;;;;;;;9.15;4.25;;;16.80;99.90;;;;;;5072344;28;20051;-50
2022/06/29 01:28:07;;;;;;;6.85;4.03;;;16.80;99.90;;;;;;5072396;28;20437;-48
2022/06/29 01:30:32;;;;;;;8.07;4.63;;;16.70;99.90;;;;;;5071836;28;20532;-52
2022/06/29 01:32:58;;;;;;;5.82;3.65;;;16.70;99.90;;;;;;5071984;28;20056;-51
2022/06/29 01:35:24;;;;;;;6.85;4.28;;;16.70;99.90;;;;;;5072190;28;20041;-50
2022/06/29 01:37:50;;;;;;;6.85;3.90;;;16.70;99.90;;;;;;5072426;28;20071;-50
2022/06/29 01:40:15;;;;;;;4.80;3.90;;;16.70;99.90;;;;;;5072208;28;20506;-48
2022/06/29 01:42:41;;;;;;;5.15;4.22;;;16.70;99.90;;;;;;5071976;28;20422;-51
2022/06/29 01:45:07;;;;;;;5.28;4.50;;;16.70;99.90;;;;;;5070762;28;20036;-52
2022/06/29 01:47:33;;;;;;;6.97;3.72;;;16.70;99.90;;;;;;5072162;28;20102;-52
2022/06/29 01:49:59;;;;;;;6.88;4.30;;;16.70;99.90;;;;;;5072148;28;20044;-50
2022/06/29 01:52:24;;;;;;;4.90;4.30;;;16.70;99.90;;;;;;5071999;28;20119;-52
2022/06/29 01:54:50;;;;;;;7.88;4.55;;;16.80;99.90;;;;;;5072005;28;20179;-52
2022/06/29 01:57:16;;;;;;;10.40;4.90;;;16.80;99.90;;;;;;5071828;28;20059;-51
2022/06/29 01:59:41;;;;;;;7.82;4.05;;;16.80;99.90;;;;;;5071828;28;20074;-51
2022/06/29 02:02:08;;;;;;;8.07;4.55;;;16.80;99.90;;;;;;5072008;28;20111;-51
2022/06/29 02:04:33;;;;;;;8.02;4.85;;;16.80;99.90;;;;;;5072050;28;20037;-50
2022/06/29 02:06:59;;;;;;;8.90;4.25;;;16.80;99.90;;;;;;5071942;28;20047;-51
2022/06/29 02:09:25;;;;;;;6.90;5.18;;;16.90;99.90;;;;;;5072196;28;20041;-48
2022/06/29 02:11:50;;;;;;;5.93;4.95;;;16.80;99.90;;;;;;5071816;28;20059;-51
2022/06/29 02:14:16;;;;;;;7.88;4.80;;;16.80;99.90;;;;;;5071552;28;20131;-51
2022/06/29 02:16:42;;;;;;;7.25;4.07;;;16.80;99.90;;;;;;5071803;28;20044;-49
2022/06/29 02:19:09;;;;;;;8.50;4.78;;;16.80;99.90;;;;;;5071994;28;20040;-49
2022/06/29 02:21:34;;;;;;;7.00;4.30;;;16.80;99.90;;;;;;5070930;28;20162;-51
2022/06/29 02:24:00;;;;;;;8.65;4.68;;;16.90;99.90;;;;;;5071607;28;20039;-50
2022/06/29 02:26:26;;;;;;;6.20;4.70;;;16.80;99.90;;;;;;5071750;28;20480;-52
2022/06/29 02:28:51;;;;;;;21.67;4.78;;;16.80;99.90;;;;;;5071890;28;20133;-52
2022/06/29 02:36:45;;;;;;;8.63;4.53;;;16.80;99.90;;;;;;5071434;28;20037;-48
2022/06/29 02:39:11;;;;;;;11.35;4.70;;;16.80;99.90;;;;;;5071392;28;20521;-51
2022/06/29 02:41:37;;;;;;;10.27;5.03;;;16.80;99.90;;;;;;5070433;28;20048;-46
2022/06/29 02:44:03;;;;;;;6.43;4.20;;;16.80;99.90;;;;;;5073668;28;20036;-49
2022/06/29 02:46:28;;;;;;;5.32;4.40;;;16.80;99.90;;;;;;5075188;28;20064;-48
2022/06/29 02:48:54;;;;;;;9.85;4.80;;;16.80;99.90;;;;;;5075454;28;20036;-50
2022/06/29 02:51:20;;;;;;;5.28;3.88;;;16.80;99.90;;;;;;5075857;28;20051;-53
2022/06/29 02:53:45;;;;;;;8.50;4.00;;;16.80;99.90;;;;;;5075277;28;20036;-52
2022/06/29 02:56:11;;;;;;;7.00;4.28;;;16.70;99.90;;;;;;5074987;28;20407;-51
2022/06/29 02:58:36;;;;;;;7.10;4.47;;;16.80;99.90;;;;;;5075145;28;20178;-48
2022/06/29 03:01:02;;;;;;;7.28;4.38;;;16.80;99.90;;;;;;5075331;28;20119;-52
2022/06/29 03:03:28;;;;;;;4.85;4.30;;;16.70;99.90;;;;;;5074913;28;20032;-52
2022/06/29 03:05:54;;;;;;;8.02;4.20;;;16.80;99.90;;;;;;5074861;28;20052;-51
2022/06/29 03:08:19;;;;;;;11.50;4.40;;;16.70;99.90;;;;;;5074835;28;20051;-51
2022/06/29 03:10:45;;;;;;;6.47;4.88;;;16.80;99.90;;;;;;5074684;28;20044;-50
2022/06/29 03:13:11;;;;;;;6.63;4.72;;;16.80;99.90;;;;;;5074675;28;20054;-50
2022/06/29 03:15:37;;;;;;;7.00;4.32;;;16.80;99.90;;;;;;5074908;28;20037;-51
2022/06/29 03:18:03;;;;;;;7.45;4.55;;;16.80;99.90;;;;;;5073294;28;20047;-51
2022/06/29 03:20:29;;;;;;;6.38;4.32;;;16.80;99.90;;;;;;5074727;28;20033;-48
2022/06/29 03:22:55;;;;;;;5.50;4.70;;;16.70;99.90;;;;;;5074516;28;20420;-48
2022/06/29 03:25:20;;;;;;;5.03;4.53;;;16.70;99.90;;;;;;5074497;28;20046;-48
2022/06/29 03:27:46;;;;;;;6.40;4.55;;;16.70;99.90;;;;;;5074729;28;20506;-50
2022/06/29 03:30:12;;;;;;;5.95;4.32;;;16.70;99.90;;;;;;5074494;28;20075;-48
2022/06/29 03:32:39;;;;;;;7.70;4.68;;;16.70;99.90;;;;;;5074545;28;20092;-47
2022/06/29 03:35:05;;;;;;;7.63;4.55;;;16.70;99.90;;;;;;5074486;28;20040;-47
2022/06/29 03:37:31;;;;;;;9.77;5.00;;;16.70;99.90;;;;;;5074485;28;20072;-49
2022/06/29 03:39:56;;;;;;;9.05;5.82;;;16.60;99.90;;;;;;5074327;28;20071;-49
2022/06/29 03:42:22;;;;;;;9.60;5.00;;;16.70;99.90;;;;;;5074543;28;20103;-53
2022/06/29 03:44:48;;;;;;;6.18;4.68;;;16.60;99.90;;;;;;5074390;28;20044;-50
2022/06/29 03:47:13;;;;;;;5.82;4.70;;;16.70;99.90;;;;;;5074427;28;20036;-47
2022/06/29 03:49:39;;;;;;;6.45;4.72;;;16.60;99.90;;;;;;5074169;28;20123;-48
2022/06/29 03:52:08;;;;;;;10.75;4.65;;;16.70;99.90;;;;;;5074195;28;20124;-51
2022/06/29 03:54:34;;;;;;;6.40;4.03;;;16.70;99.90;;;;;;5073931;28;20044;-50
2022/06/29 03:56:59;;;;;;;5.22;4.72;;;16.70;99.90;;;;;;5074025;28;20392;-49
2022/06/29 03:59:25;;;;;;;4.90;4.40;;;16.60;99.90;;;;;;5074239;28;20047;-52
2022/06/29 04:01:50;;;;;;;10.05;5.53;;;16.60;99.90;;;;;;5074012;28;20033;-49
2022/06/29 04:04:16;;;;;;;7.05;4.43;;;16.70;99.90;;;;;;5073944;28;20025;-48
2022/06/29 04:06:42;;;;;;;5.60;4.60;;;16.60;99.90;;;;;;5073745;28;20036;-49
2022/06/29 04:09:07;;;;;;;8.32;5.13;;;16.60;99.90;;;;;;5073593;28;20044;-51
2022/06/29 04:14:27;;;;;;;5.80;4.60;;;16.60;99.90;;;;;;5073891;28;20041;-49
2022/06/29 04:16:55;;;;;;;5.47;4.70;;;16.60;99.90;;;;;;5073570;28;20051;-46
2022/06/29 04:19:21;;;;;;;6.72;5.15;;;16.60;99.90;;;;;;5073615;28;20147;-49
2022/06/29 04:21:47;;;;;;;6.38;4.50;;;16.60;99.90;;;;;;5073612;28;20051;-48
2022/06/29 04:24:13;;;;;;;7.50;4.65;;;16.60;99.90;;;;;;5073698;28;20174;-51
2022/06/29 04:26:39;;;;;;;5.18;3.97;;;16.60;99.90;;;;;;5073601;28;20036;-53
2022/06/29 04:29:06;;;;;;;6.55;4.55;;;16.60;99.90;;;;;;5073521;28;20055;-53
2022/06/29 04:31:32;;;;;;;8.13;4.80;;;16.70;99.90;;;;;;5073297;28;20123;-48
2022/06/29 04:33:58;;;;;;;6.82;5.40;;;16.60;99.90;;;;;;5073194;28;20091;-49
2022/06/29 04:36:24;;;;;;;8.77;5.32;;;16.70;99.90;;;;;;5073295;28;20084;-45
2022/06/29 04:38:50;;;;;;;6.75;4.68;;;16.70;99.90;;;;;;5073381;28;20471;-46
2022/06/29 04:41:16;;;;;;;6.60;5.38;;;16.70;99.90;;;;;;5071873;28;20040;-47
2022/06/29 04:43:42;;;;;;;5.80;4.75;;;16.80;99.90;;;;;;5073363;28;20091;-48
2022/06/29 04:46:19;;;;;;;7.43;5.07;;;16.80;99.90;;;;;;5073313;28;20155;-46
2022/06/29 04:48:55;;;;;;;4.60;4.20;;;16.90;99.90;;;;;;5073046;28;20471;-48
2022/06/29 04:51:22;;;;;;;8.63;5.40;;;17.00;99.90;;;;;;5073159;28;20111;-52
2022/06/29 04:53:48;;;;;;;5.43;4.85;;;17.00;99.90;;;;;;5073018;28;20039;-48
2022/06/29 04:56:15;;;;;;;8.18;4.72;;;17.10;99.90;;;;;;5072704;28;20395;-51
2022/06/29 04:58:42;;;;;;;6.05;4.60;;;17.10;99.90;;;;;;5072714;28;20040;-52
2022/06/29 05:01:07;;;;;;;8.30;4.85;;;17.20;99.90;;;;;;5072826;28;20040;-50
2022/06/29 05:03:34;;;;;;;7.78;4.95;;;17.10;99.90;;;;;;5072886;28;20048;-52
2022/06/29 05:06:00;;;;;;;10.68;5.18;;;17.20;99.90;;;;;;5071976;28;20551;-53
2022/06/29 05:08:25;;;;;;;7.57;4.95;;;17.20;99.90;;;;;;5072632;28;20048;-51
2022/06/29 05:10:51;;;;;;;7.78;5.20;;;17.20;99.90;;;;;;5071341;28;20044;-47
2022/06/29 05:13:17;;;;;;;8.63;5.25;;;17.30;99.90;;;;;;5072499;28;20036;-50
2022/06/29 05:15:42;;;;;;;4.97;4.43;;;17.30;99.90;;;;;;5071362;28;20045;-50
2022/06/29 05:18:08;;;;;;;9.57;4.60;;;17.30;99.90;;;;;;5070991;28;20048;-51
2022/06/29 05:20:34;;;;;;;6.95;4.63;;;17.40;99.90;;;;;;5072737;28;20051;-53
2022/06/29 05:22:59;;;;;;;6.75;4.82;;;17.40;99.90;;;;;;5072339;28;20045;-50
2022/06/29 05:25:26;;;;;;;7.80;5.30;;;17.40;99.90;;;;;;5072306;28;20047;-51
2022/06/29 05:27:52;;;;;;;5.40;4.90;;;17.40;99.90;;;;;;5072322;28;20073;-51
2022/06/29 05:30:17;;;;;;;11.10;6.45;;;17.40;99.90;;;;;;5072141;28;20040;-52
2022/06/29 05:32:43;;;;;;;6.53;5.25;;;17.50;99.90;;;;;;5072071;28;20080;-51
2022/06/29 05:35:10;;;;;;;10.27;5.88;;;17.50;99.90;;;;;;5072091;28;20551;-50
2022/06/29 05:37:36;;;;;;;5.82;4.43;;;17.50;99.90;;;;;;5072510;28;20044;-48
2022/06/29 05:40:03;;;;;;;5.00;4.07;;;17.60;99.90;;;;;;5072553;28;20048;-51
2022/06/29 05:42:29;;;;;;;5.43;4.25;;;17.60;99.90;;;;;;5071410;28;20426;-47
2022/06/29 05:44:55;;;;;;;5.95;4.20;;;17.60;99.90;;;;;;5071897;28;20093;-50
2022/06/29 05:47:20;;;;;;;6.25;4.28;;;17.70;99.90;;;;;;5072202;28;20040;-49
2022/06/29 05:49:46;;;;;;;8.40;3.85;;;17.70;99.90;;;;;;5072128;28;20044;-51
2022/06/29 05:52:12;;;;;;;9.70;4.38;;;17.90;99.90;;;;;;5072033;28;20044;-52
2022/06/29 05:54:38;;;;;;;5.80;4.18;;;18.00;99.90;;;;;;5071834;28;20037;-50
2022/06/29 05:57:05;;;;;;;6.47;4.30;;;18.20;99.90;;;;;;5071793;28;20528;-53
2022/06/29 05:59:31;;;;;;;7.75;3.90;;;18.30;99.90;;;;;;5071749;28;20098;-51
2022/06/29 06:01:56;;;;;;;5.97;4.28;;;18.40;99.90;;;;;;5071932;28;20064;-51
2022/06/29 06:04:22;;;;;;;7.72;4.65;;;18.50;99.90;;;;;;5071999;28;20540;-51
2022/06/29 06:06:47;;;;;;;6.07;3.50;;;18.70;99.90;;;;;;5071936;28;20040;-53
2022/06/29 06:09:13;;;;;;;4.75;3.53;;;18.80;99.90;;;;;;5071965;28;20116;-50
2022/06/29 06:11:39;;;;;;;3.78;3.28;;;18.90;99.90;;;;;;5071699;28;20470;-54
2022/06/29 06:14:04;;;;;;;4.65;3.78;;;19.00;99.90;;;;;;5071740;28;20082;-52
2022/06/29 06:16:30;;;;;;;4.50;2.75;;;19.00;99.90;;;;;;5071866;28;20483;-51
2022/06/29 06:18:55;;;;;;;6.10;3.40;;;19.10;99.90;;;;;;5073942;28;20075;-52
2022/06/29 06:21:21;;;;;;;5.15;3.17;;;19.20;99.90;;;;;;5076085;28;20040;-48
2022/06/29 06:23:47;;;;;;;5.95;3.72;;;19.30;99.90;;;;;;5076017;28;20121;-52
2022/06/29 06:26:13;;;;;;;4.47;3.38;;;19.50;99.90;;;;;;5075929;28;20115;-50
2022/06/29 06:28:40;;;;;;;8.80;3.55;;;19.50;99.90;;;;;;5075859;28;20093;-52
2022/06/29 06:31:07;;;;;;;4.63;3.03;;;19.70;99.90;;;;;;5075718;28;20057;-50
2022/06/29 06:33:33;;;;;;;8.38;3.38;;;19.80;99.90;;;;;;5075891;28;20051;-52
2022/06/29 06:35:58;;;;;;;5.38;2.85;;;19.90;99.90;;;;;;5075735;28;20083;-50
2022/06/29 06:38:24;;;;;;;6.03;2.75;;;20.00;99.90;;;;;;5075676;28;20060;-48
2022/06/29 06:43:34;;;;;;;3.70;2.50;;;20.20;99.90;;;;;;5075500;28;20534;-51
2022/06/29 06:45:59;;;;;;;5.10;2.75;;;20.40;99.90;;;;;;5074531;28;20143;-50
2022/06/29 06:48:25;;;;;;;6.00;2.80;;;20.50;99.90;;;;;;5075527;28;20043;-51
2022/06/29 06:50:50;;;;;;;7.70;2.50;;;20.70;99.90;;;;;;5075284;28;20045;-50
2022/06/29 06:53:16;;;;;;;6.25;2.47;;;20.80;99.90;;;;;;5075535;28;20086;-50
2022/06/29 06:55:42;;;;;;;4.93;2.17;;;21.10;99.90;;;;;;5075150;28;20039;-50
2022/06/29 06:58:07;;;;;;;5.97;2.20;;;21.10;99.90;;;;;;5075013;28;20116;-52
2022/06/29 07:00:33;;;;;;;4.68;2.38;;;21.30;99.90;;;;;;5075335;28;20115;-49
2022/06/29 07:02:59;;;;;;;5.38;2.13;;;21.40;99.90;;;;;;5074235;28;20147;-50
2022/06/29 07:05:25;;;;;;;3.53;2.58;;;21.50;99.90;;;;;;5075267;28;20036;-50
2022/06/29 07:07:51;;;;;;;5.60;2.28;;;21.50;99.90;;;;;;5075138;28;20040;-50
2022/06/29 07:10:17;;;;;;;7.07;2.22;;;21.70;99.90;;;;;;5074802;28;20047;-48
2022/06/29 07:12:42;;;;;;;8.57;3.38;;;21.80;99.90;;;;;;5075116;28;20090;-50
2022/06/29 07:15:08;;;;;;;7.95;2.70;;;21.90;99.90;;;;;;5074968;28;20095;-50
2022/06/29 07:17:34;;;;;;;4.45;2.25;;;22.10;99.90;;;;;;5074987;28;20044;-46
2022/06/29 07:20:00;;;;;;;7.30;2.35;;;22.20;99.90;;;;;;5074836;28;20101;-50
2022/06/29 07:22:25;;;;;;;4.28;2.55;;;22.10;99.90;;;;;;5074602;28;20125;-49
2022/06/29 07:24:51;;;;;;;3.83;2.15;;;22.30;99.90;;;;;;5074670;28;20115;-51
2022/06/29 07:27:17;;;;;;;5.53;1.75;;;22.30;99.90;;;;;;5074808;28;20116;-51
2022/06/29 07:29:42;;;;;;;3.05;1.80;;;22.40;99.90;;;;;;5074291;28;20500;-50
2022/06/29 07:32:08;;;;;;;6.10;1.88;;;22.60;99.90;;;;;;5074487;28;20575;-48
2022/06/29 07:34:34;;;;;;;2.20;1.45;;;22.80;99.90;;;;;;5074462;28;20048;-50
2022/06/29 07:37:00;;;;;;;4.60;1.45;;;23.00;99.90;;;;;;5074493;28;20037;-47
2022/06/29 07:39:26;;;;;;;3.05;1.83;;;23.10;99.90;;;;;;5074337;28;20036;-50
2022/06/29 07:41:51;;;;;;;2.92;1.80;;;23.30;99.90;;;;;;5074570;28;20036;-50
2022/06/29 07:44:17;;;;;;;1.70;1.60;;;23.40;99.90;;;;;;5074666;28;20444;-47
2022/06/29 07:46:42;;;;;;;7.70;1.70;;;23.70;99.90;;;;;;5074676;28;20048;-50
2022/06/29 07:49:08;;;;;;;3.13;1.85;;;23.70;99.90;;;;;;5074209;28;20123;-51
2022/06/29 07:51:34;;;;;;;4.38;1.55;;;23.80;99.90;;;;;;5074642;28;20401;-50
2022/06/29 07:54:00;;;;;;;8.18;1.75;;;23.70;99.90;;;;;;5074233;28;20051;-48
2022/06/29 07:56:25;;;;;;;2.13;1.48;;;23.90;99.90;;;;;;5074274;28;20044;-52
2022/06/29 07:58:51;;;;;;;2.60;1.55;;;23.90;99.90;;;;;;5074274;28;20067;-51
2022/06/29 08:01:17;;;;;;;2.95;1.52;;;23.90;99.90;;;;;;5074016;28;20549;-50
2022/06/29 08:03:42;;;;;;;3.03;1.75;;;24.20;99.90;;;;;;5074004;28;20090;-48
2022/06/29 08:06:09;;;;;;;3.10;1.80;;;23.90;99.90;;;;;;5073822;28;20116;-50
2022/06/29 08:08:35;;;;;;;2.30;1.70;;;23.90;99.90;;;;;;5073677;28;20040;-48
2022/06/29 08:11:02;;;;;;;6.57;1.60;;;24.10;99.90;;;;;;5072599;28;20040;-49
2022/06/29 08:13:28;;;;;;;4.90;1.90;;;24.20;99.90;;;;;;5073906;28;20044;-51
2022/06/29 08:15:53;;;;;;;2.65;1.90;;;24.10;99.90;;;;;;5073894;28;20052;-50
2022/06/29 08:18:19;;;;;;;4.13;1.63;;;24.20;99.90;;;;;;5073802;28;20372;-51
2022/06/29 08:20:44;;;;;;;4.72;1.70;;;24.30;99.90;;;;;;5073530;28;20033;-52
2022/06/29 08:23:11;;;;;;;6.18;2.28;;;24.50;99.90;;;;;;5072333;28;20166;-50
2022/06/29 08:25:36;;;;;;;10.07;2.55;;;24.60;99.90;;;;;;5073714;28;20123;-48
2022/06/29 08:28:02;;;;;;;5.75;1.80;;;24.80;99.90;;;;;;5073006;28;20218;-50
2022/06/29 08:30:28;;;;;;;7.07;1.80;;;24.80;99.90;;;;;;5073807;28;20589;-54
2022/06/29 08:32:54;;;;;;;3.30;1.77;;;24.90;99.90;;;;;;5072339;28;20048;-48
2022/06/29 08:35:20;;;;;;;2.05;1.38;;;24.90;99.90;;;;;;5073183;28;20059;-48
2022/06/29 08:37:46;;;;;;;8.18;1.80;;;25.00;99.90;;;;;;5073261;28;20036;-47
2022/06/29 08:40:15;;;;;;;4.15;1.40;;;25.10;99.90;;;;;;5073137;28;20103;-54
2022/06/29 08:42:42;;;;;;;6.13;2.08;;;25.60;99.90;;;;;;5072626;28;20475;-54
2022/06/29 08:45:09;;;;;;;2.05;1.30;;;26.00;99.90;;;;;;5073212;28;20041;-53
2022/06/29 08:47:36;;;;;;;3.45;1.77;;;26.10;99.90;;;;;;5073025;28;20086;-52
2022/06/29 08:50:06;;;;;;;4.15;1.65;;;26.30;99.90;;;;;;5073133;28;20032;-52
2022/06/29 08:52:35;;;;;;;12.32;1.70;;;26.20;99.90;;;;;;5073049;28;20850;-52
2022/06/29 08:55:04;;;;;;;3.42;1.35;;;26.30;99.90;;;;;;5071759;28;20433;-54
2022/06/29 08:57:31;;;;;;;2.67;1.30;;;26.50;99.90;;;;;;5071555;28;20049;-51
2022/06/29 08:59:57;;;;;;;2.83;1.38;;;26.60;99.90;;;;;;5072885;28;20036;-55
2022/06/29 09:02:22;;;;;;;2.80;1.70;;;26.60;99.90;;;;;;5072815;28;20095;-53
2022/06/29 09:04:48;;;;;;;2.30;1.45;;;26.50;99.90;;;;;;5072618;28;20040;-53
2022/06/29 09:07:14;;;;;;;3.67;1.50;;;26.70;99.90;;;;;;5073272;28;20080;-53
2022/06/29 09:09:59;;;;;;;4.28;2.05;;;26.50;99.90;;;;;;5072719;28;20076;-53
2022/06/29 09:12:25;;;;;;;3.45;1.60;;;26.40;99.90;;;;;;5072513;28;20494;-52
2022/06/29 09:14:51;;;;;;;2.97;1.40;;;26.60;99.90;;;;;;5071146;28;20129;-54
2022/06/29 09:17:17;;;;;;;6.43;1.80;;;27.30;99.90;;;;;;5072354;28;20068;-53
2022/06/29 09:19:46;;;;;;;2.55;1.52;;;27.50;99.90;;;;;;5072449;28;20119;-53
2022/06/29 09:22:12;;;;;;;2.80;1.30;;;27.80;99.90;;;;;;5072437;28;20032;-53
2022/06/29 09:24:38;;;;;;;4.55;1.73;;;27.50;99.90;;;;;;5071189;28;20525;-54
2022/06/29 09:27:08;;;;;;;4.75;1.60;;;27.80;99.90;;;;;;5072286;28;20076;-53
2022/06/29 09:29:36;;;;;;;1.88;1.30;;;27.60;99.40;;;;;;5072730;28;20037;-54
2022/06/29 09:32:02;;;;;;;1.35;1.25;;;27.80;99.90;;;;;;5071878;28;20087;-55
2022/06/29 09:34:36;;;;;;;3.20;1.40;;;28.00;99.90;;;;;;5072435;28;20051;-53
2022/06/29 09:37:03;;;;;;;1.67;1.30;;;28.00;98.80;;;;;;5072006;28;20036;-51
2022/06/29 09:39:47;;;;;;;2.67;1.42;;;28.20;99.90;;;;;;5072173;28;20033;-52
2022/06/29 09:42:16;;;;;;;1.67;1.30;;;28.50;99.90;;;;;;5072266;28;20047;-54
2022/06/29 09:44:43;;;;;;;2.83;1.42;;;28.50;99.40;;;;;;5072484;28;20121;-52
2022/06/29 09:47:14;;;;;;;3.25;1.35;;;28.40;99.40;;;;;;5072371;28;20060;-53
2022/06/29 09:49:40;;;;;;;2.78;1.17;;;28.10;99.20;;;;;;5070655;28;20079;-51
2022/06/29 09:52:07;;;;;;;2.88;1.73;;;28.50;99.00;;;;;;5071843;28;20070;-54
2022/06/29 09:54:37;;;;;;;1.52;1.35;;;28.60;99.40;;;;;;5071745;28;20045;-54
2022/06/29 09:57:05;;;;;;;1.92;1.30;;;28.90;99.00;;;;;;5072015;28;20047;-52
2022/06/29 10:02:37;;;;;;;2.78;1.63;;;29.00;97.40;;;;;;5072030;28;20398;-52
2022/06/29 10:05:12;;;;;;;1.92;1.40;;;29.20;98.10;;;;;;5071790;28;20055;-54
2022/06/29 10:07:40;;;;;;;1.48;1.30;;;29.40;97.90;;;;;;5071783;28;20502;-53
2022/06/29 10:10:09;;;;;;;6.03;1.48;;;29.70;96.80;;;;;;5071947;28;20115;-51
2022/06/29 10:16:14;;;;;;;2.55;1.52;;;29.90;96.30;;;;;;5071577;28;20045;-54
2022/06/29 10:18:43;;;;;;;2.25;1.50;;;29.90;95.50;;;;;;5071618;28;20051;-54
2022/06/29 10:21:15;;;;;;;2.72;1.70;;;30.20;95.00;;;;;;5071661;28;20110;-53
2022/06/29 10:23:57;;;;;;;1.80;1.38;;;30.50;96.30;;;;;;5071652;28;20032;-55
2022/06/29 10:26:35;;;;;;;5.93;1.30;;;30.70;95.50;;;;;;5071695;28;20036;-54
2022/06/29 10:29:10;;;;;;;2.30;1.37;;;30.80;95.20;;;;;;5071597;28;20044;-53
2022/06/29 10:31:51;;;;;;;3.05;1.50;;;30.80;94.50;;;;;;5071501;28;20470;-54
2022/06/29 10:34:28;;;;;;;2.15;1.30;;;31.10;94.70;;;;;;5071449;28;20044;-53
2022/06/29 10:37:04;;;;;;;3.25;1.42;;;31.00;95.10;;;;;;5071650;28;20035;-51
2022/06/29 10:39:45;;;;;;;3.03;1.63;;;30.70;95.00;;;;;;5071488;28;20040;-53
2022/06/29 10:45:18;;;;;;;3.30;1.50;;;31.10;93.90;;;;;;5071500;28;20044;-52
2022/06/29 10:47:56;;;;;;;4.93;1.38;;;31.70;94.80;;;;;;5070180;28;20059;-53
2022/06/29 10:50:29;;;;;;;4.85;1.70;;;31.70;94.20;;;;;;5071348;28;20044;-54
2022/06/29 10:52:56;;;;;;;1.98;1.20;;;32.00;94.70;;;;;;5071392;28;20076;-52
2022/06/29 10:55:23;;;;;;;2.17;1.50;;;31.70;93.20;;;;;;5071156;28;20040;-52
2022/06/29 10:57:49;;;;;;;1.63;1.30;;;31.60;93.40;;;;;;5071777;28;20441;-53
2022/06/29 11:00:23;;;;;;;6.78;1.27;;;31.40;93.60;;;;;;5070974;28;20033;-53
2022/06/29 11:02:49;;;;;;;2.25;1.25;;;31.30;93.40;;;;;;5069206;28;20394;-54
2022/06/29 11:05:15;;;;;;;1.70;1.23;;;31.70;92.90;;;;;;5073597;28;20036;-54
2022/06/29 11:13:22;;;;;;;2.08;1.50;;;32.70;93.10;;;;;;5074927;28;19921;-54
2022/06/29 11:15:53;;;;;;;2.72;1.40;;;32.50;93.30;;;;;;5074693;28;20040;-55
2022/06/29 11:18:29;;;;;;;2.17;1.50;;;32.60;93.20;;;;;;5074594;28;20386;-55
2022/06/29 11:21:06;;;;;;;3.00;1.50;;;32.80;93.20;;;;;;5075092;28;20115;-51
2022/06/29 11:23:35;;;;;;;5.97;1.20;;;32.60;92.20;;;;;;5074815;28;20451;-52
2022/06/29 11:26:06;;;;;;;1.58;1.20;;;33.10;91.80;;;;;;5074432;28;20048;-53
2022/06/29 11:28:35;;;;;;;2.17;1.35;;;33.00;91.80;;;;;;5073295;28;20044;-54
2022/06/29 11:31:05;;;;;;;1.90;1.25;;;32.90;92.60;;;;;;5074533;28;20061;-54
2022/06/29 11:33:32;;;;;;;2.13;1.10;;;33.10;92.00;;;;;;5074762;28;20402;-53
2022/06/29 11:36:07;;;;;;;1.13;1.02;;;32.30;91.30;;;;;;5074520;28;20048;-55
2022/06/29 11:38:38;;;;;;;3.70;1.30;;;32.90;92.10;;;;;;5074521;28;20043;-55
2022/06/29 11:44:27;;;;;;;1.70;1.17;;;32.90;92.50;;;;;;5074360;28;20040;-53
2022/06/29 11:46:57;;;;;;;4.68;1.63;;;33.00;91.60;;;;;;5074381;28;20116;-53
2022/06/29 11:49:40;;;;;;;4.82;1.33;;;33.60;91.70;;;;;;5074043;28;20037;-55
2022/06/29 11:52:12;;;;;;;2.13;1.17;;;34.00;90.60;;;;;;5074385;28;20083;-54
2022/06/29 11:54:46;;;;;;;4.00;1.20;;;33.30;90.00;;;;;;5072829;28;20495;-54
2022/06/29 11:57:15;;;;;;;1.60;1.00;;;33.50;90.10;;;;;;5074188;28;20090;-54
2022/06/29 11:59:44;;;;;;;1.13;0.93;;;33.50;90.60;;;;;;5073934;28;20036;-54
2022/06/29 12:02:11;;;;;;;1.67;1.08;;;33.70;90.70;;;;;;5074191;28;20048;-54
2022/06/29 12:04:37;;;;;;;1.23;1.13;;;33.50;89.30;;;;;;5073827;28;20040;-55
2022/06/29 12:07:13;;;;;;;3.08;1.30;;;32.70;91.10;;;;;;5073088;28;20052;-53
2022/06/29 12:09:40;;;;;;;6.55;1.30;;;32.10;91.00;;;;;;5073371;28;20045;-53
2022/06/29 12:12:08;;;;;;;4.90;1.25;;;32.50;90.30;;;;;;5072327;28;20451;-54
2022/06/29 12:14:34;;;;;;;2.03;1.20;;;32.90;90.10;;;;;;5073160;28;20032;-54
2022/06/29 12:17:00;;;;;;;3.15;1.27;;;33.30;90.50;;;;;;5073806;28;20037;-51
2022/06/29 12:19:26;;;;;;;2.28;1.27;;;33.50;90.00;;;;;;5073770;28;20375;-54
2022/06/29 12:21:52;;;;;;;2.45;1.33;;;33.20;90.00;;;;;;5073617;28;20036;-55
2022/06/29 12:24:18;;;;;;;1.67;1.30;;;33.30;90.40;;;;;;5073646;28;20403;-54
2022/06/29 12:26:45;;;;;;;2.05;1.48;;;33.60;90.70;;;;;;5074146;28;20237;-54
2022/06/29 12:29:13;;;;;;;2.20;1.30;;;33.80;90.80;;;;;;5073916;28;20450;-53
2022/06/29 12:31:42;;;;;;;;;;;34.10;88.60;;;;;;5073735;28;20060;-54
2022/06/29 12:34:09;;;;;;;2.10;1.27;;;33.50;89.00;;;;;;5073373;28;19916;-52
2022/06/29 12:36:35;;;;;;;4.07;1.65;;;33.90;90.20;;;;;;5073324;28;20063;-53
2022/06/29 12:39:01;;;;;;;1.70;1.60;;;33.40;90.50;;;;;;5073169;28;20470;-55
2022/06/29 12:41:26;;;;;;;2.22;1.55;;;33.80;90.20;;;;;;5073301;28;20514;-54
2022/06/29 12:43:52;;;;;;;1.95;1.75;;;33.50;90.80;;;;;;5073452;28;20052;-54
2022/06/29 12:46:18;;;;;;;2.10;1.73;;;33.60;90.10;;;;;;5072710;28;20078;-53
2022/06/29 12:48:43;;;;;;;4.07;2.10;;;33.40;89.30;;;;;;5073126;28;20036;-54
2022/06/29 12:51:09;;;;;;;7.57;2.83;;;33.20;90.00;;;;;;5073244;28;20052;-53
2022/06/29 12:53:36;;;;;;;2.28;1.90;;;33.50;90.30;;;;;;5072937;28;20575;-54
2022/06/29 12:56:05;;;;;;;3.20;2.05;;;33.40;90.10;;;;;;5072840;28;20044;-55
2022/06/29 12:58:31;;;;;;;4.07;2.00;;;33.10;90.40;;;;;;5072791;28;20471;-55
2022/06/29 13:00:57;;;;;;;3.83;2.15;;;33.50;90.90;;;;;;5073104;28;20363;-54
2022/06/29 13:03:23;;;;;;;7.53;2.30;;;33.30;90.40;;;;;;5072933;28;20036;-55
2022/06/29 13:05:49;;;;;;;2.78;2.30;;;32.80;89.10;;;;;;5072646;28;20036;-54
2022/06/29 13:08:15;;;;;;;4.53;2.00;;;32.70;90.70;;;;;;5072760;28;20032;-53
2022/06/29 13:10:41;;;;;;;4.07;2.33;;;33.20;90.90;;;;;;5072575;28;20098;-54
2022/06/29 13:13:07;;;;;;;3.92;2.63;;;33.30;90.50;;;;;;5071745;28;20056;-53
2022/06/29 13:15:32;;;;;;;4.57;2.10;;;32.70;90.40;;;;;;5072688;28;20052;-54